Time;durP1;ratioP1;P1;durP2;ratioP2;P2;SDS_P1;SDS_P2;PMS_P1;PMS_P2;Temp;Humidity;BMP_temperature;BMP_pressure;BME280_temperature;BME280_humidity;BME280_pressure;Samples;Min_cycle;Max_cycle;Signal;HPM_P1;HPM_P2
2023/09/07 00:02:05;;;;;;;4.57;2.45;;;;;;;25.47;42.73;100356.63;5043406;28;20122;-73
2023/09/07 00:04:31;;;;;;;3.42;2.47;;;;;;;25.46;42.52;100349.53;5053330;28;20055;-75
2023/09/07 00:06:59;;;;;;;3.30;2.47;;;;;;;25.46;42.60;100344.16;5053288;28;20110;-80
2023/09/07 00:09:26;;;;;;;4.90;2.60;;;;;;;25.43;42.69;100347.19;5053212;28;20060;-77
2023/09/07 00:11:53;;;;;;;4.35;2.47;;;;;;;25.41;42.60;100341.13;5047423;28;20057;-79
2023/09/07 00:14:19;;;;;;;3.85;2.33;;;;;;;25.38;42.69;100348.53;5033236;28;20494;-75
2023/09/07 00:16:46;;;;;;;3.40;2.47;;;;;;;25.36;42.91;100344.34;5033100;28;20042;-76
2023/09/07 00:19:12;;;;;;;2.95;2.03;;;;;;;25.33;42.92;100345.53;5033237;28;20057;-79
2023/09/07 00:21:39;;;;;;;3.20;2.40;;;;;;;25.31;42.72;100347.53;5033373;28;20061;-74
2023/09/07 00:24:06;;;;;;;3.55;2.33;;;;;;;25.29;42.96;100341.47;5048226;28;20048;-73
2023/09/07 00:26:32;;;;;;;2.17;1.98;;;;;;;25.26;42.82;100352.59;5040928;28;20132;-79
2023/09/07 00:28:59;;;;;;;4.75;2.40;;;;;;;25.22;43.05;100354.78;5051872;28;20045;-74
2023/09/07 00:33:51;;;;;;;4.13;2.07;;;;;;;25.16;43.12;100357.31;5234930;22;20070;-72
2023/09/07 00:36:18;;;;;;;2.20;2.00;;;;;;;25.13;43.39;100352.25;5017831;28;20081;-75
2023/09/07 00:38:44;;;;;;;2.78;2.53;;;;;;;25.08;43.24;100344.72;5013854;28;20078;-75
2023/09/07 00:41:13;;;;;;;4.13;2.83;;;;;;;25.03;43.07;100347.03;5013481;28;20045;-74
2023/09/07 00:43:40;;;;;;;3.10;2.30;;;;;;;24.98;43.29;100344.88;5012306;28;20045;-73
2023/09/07 00:46:08;;;;;;;2.97;2.25;;;;;;;24.92;43.61;100342.84;5013409;28;20050;-76
2023/09/07 00:48:35;;;;;;;4.63;2.30;;;;;;;24.87;43.77;100353.25;5013680;28;20049;-76
2023/09/07 00:51:02;;;;;;;3.83;2.55;;;;;;;24.81;43.60;100347.50;5013239;28;20049;-76
2023/09/07 00:53:29;;;;;;;3.80;2.60;;;;;;;24.73;44.19;100348.34;5013459;28;20049;-73
2023/09/07 00:55:57;;;;;;;4.07;2.42;;;;;;;24.68;44.75;100337.25;5013319;28;20561;-76
2023/09/07 00:58:23;;;;;;;7.45;2.78;;;;;;;24.62;44.52;100342.47;5013277;28;20057;-75
2023/09/07 01:00:50;;;;;;;5.00;2.53;;;;;;;24.54;45.06;100338.72;5013070;28;20058;-76
2023/09/07 01:03:17;;;;;;;5.90;2.50;;;;;;;24.48;45.11;100339.38;5013149;28;20786;-76
2023/09/07 01:05:54;;;;;;;4.03;2.65;;;;;;;24.37;45.97;100340.53;5013002;28;20491;-78
2023/09/07 01:08:35;;;;;;;4.28;2.67;;;;;;;24.31;45.95;100342.06;5013361;28;20054;-78
2023/09/07 01:11:03;;;;;;;5.25;2.83;;;;;;;24.30;45.38;100343.03;5012635;28;20050;-78
2023/09/07 01:13:29;;;;;;;5.22;2.50;;;;;;;24.27;45.36;100339.84;5011969;28;20495;-75
2023/09/07 01:15:56;;;;;;;4.25;2.55;;;;;;;24.23;45.38;100341.16;5012640;28;20049;-75
2023/09/07 01:18:23;;;;;;;3.42;2.35;;;;;;;24.20;45.48;100339.66;5012752;28;20050;-76
2023/09/07 01:20:52;;;;;;;4.75;2.88;;;;;;;24.18;45.59;100347.06;5012690;28;20061;-76
2023/09/07 01:26:22;;;;;;;5.13;2.80;;;;;;;24.16;45.68;100332.91;5048293;22;20060;-81
2023/09/07 01:28:48;;;;;;;4.32;2.40;;;;;;;24.13;45.41;100331.38;5031853;28;20503;-82
2023/09/07 01:31:15;;;;;;;4.55;2.72;;;;;;;24.12;45.65;100339.63;5031755;28;20076;-79
2023/09/07 01:33:42;;;;;;;3.60;2.90;;;;;;;24.08;46.26;100331.84;5032064;28;20128;-81
2023/09/07 01:36:08;;;;;;;6.15;2.97;;;;;;;24.05;46.15;100324.13;5032288;28;20091;-81
2023/09/07 01:38:35;;;;;;;4.60;3.10;;;;;;;24.02;46.58;100323.56;5032668;28;20406;-82
2023/09/07 01:41:01;;;;;;;5.00;3.22;;;;;;;23.98;46.72;100316.84;5031637;28;20057;-81
2023/09/07 01:43:28;;;;;;;3.42;2.90;;;;;;;23.93;46.41;100320.03;5032169;28;20398;-80
2023/09/07 01:45:55;;;;;;;3.60;2.70;;;;;;;23.88;46.35;100316.97;5032041;28;20100;-81
2023/09/07 01:48:21;;;;;;;4.72;3.20;;;;;;;23.82;46.72;100311.22;5032199;28;20148;-80
2023/09/07 01:53:20;;;;;;;8.90;2.78;;;;;;;23.73;46.68;100311.38;5075155;22;20072;-78
2023/09/07 01:55:47;;;;;;;3.75;2.72;;;;;;;23.68;46.94;100319.91;5011336;28;20505;-77
2023/09/07 01:58:14;;;;;;;3.85;3.03;;;;;;;23.65;46.90;100322.91;5011298;28;20136;-78
2023/09/07 02:00:41;;;;;;;10.10;3.40;;;;;;;23.62;47.25;100320.56;5011325;28;20054;-78
2023/09/07 02:03:07;;;;;;;4.63;2.92;;;;;;;23.60;47.21;100318.03;5011106;28;20145;-78
2023/09/07 02:05:34;;;;;;;5.75;3.05;;;;;;;23.58;47.21;100324.56;5011354;28;20425;-78
2023/09/07 02:08:01;;;;;;;5.97;2.90;;;;;;;23.55;47.54;100329.22;5011365;28;20406;-77
2023/09/07 02:10:27;;;;;;;6.72;2.90;;;;;;;23.53;47.33;100328.56;5011044;28;20053;-82
2023/09/07 02:12:56;;;;;;;10.50;3.03;;;;;;;23.50;47.50;100326.19;5010695;28;20057;-79
2023/09/07 02:15:23;;;;;;;5.75;3.53;;;;;;;23.46;47.29;100321.28;5010629;28;20050;-77
2023/09/07 02:17:50;;;;;;;5.20;3.17;;;;;;;23.41;47.36;100325.28;5010374;28;20061;-78
2023/09/07 02:20:18;;;;;;;6.72;3.55;;;;;;;23.38;47.65;100325.63;5010445;28;20057;-79
2023/09/07 02:22:45;;;;;;;8.35;3.75;;;;;;;23.34;47.70;100321.56;5010382;28;20056;-78
2023/09/07 02:25:12;;;;;;;5.78;3.50;;;;;;;23.32;47.59;100317.31;5010574;28;20136;-78
2023/09/07 02:27:38;;;;;;;8.88;4.10;;;;;;;23.28;47.99;100325.69;5010369;28;20069;-77
2023/09/07 02:30:05;;;;;;;8.35;3.70;;;;;;;23.25;47.83;100319.78;5010557;28;20069;-81
2023/09/07 02:32:32;;;;;;;5.20;3.60;;;;;;;23.23;48.13;100314.56;5010117;28;20100;-78
2023/09/07 02:34:59;;;;;;;4.00;3.15;;;;;;;23.23;48.13;100321.78;5010693;28;20058;-76
2023/09/07 02:37:25;;;;;;;8.38;3.85;;;;;;;23.22;48.33;100312.03;5010360;28;20104;-79
2023/09/07 02:39:52;;;;;;;6.28;4.07;;;;;;;23.22;48.16;100310.19;5009153;28;20491;-79
2023/09/07 02:42:18;;;;;;;6.72;4.30;;;;;;;23.22;48.22;100310.19;5010057;28;20096;-76
2023/09/07 02:44:45;;;;;;;5.85;3.78;;;;;;;23.21;48.07;100311.19;5010245;28;20134;-79
2023/09/07 02:47:12;;;;;;;6.10;3.90;;;;;;;23.20;48.29;100311.34;5010492;28;20060;-78
2023/09/07 02:49:38;;;;;;;5.55;3.70;;;;;;;23.19;48.47;100309.66;5009963;28;20108;-79
2023/09/07 02:52:05;;;;;;;6.85;3.58;;;;;;;23.19;48.38;100302.44;4971906;28;1174307;-77
2023/09/07 02:54:34;;;;;;;8.15;4.32;;;;;;;23.19;48.24;100306.97;5015267;28;20056;-78
2023/09/07 02:57:01;;;;;;;5.47;4.07;;;;;;;23.18;48.16;100306.16;5013787;28;20155;-78
2023/09/07 02:59:27;;;;;;;5.00;3.65;;;;;;;23.18;47.98;100308.84;5014422;28;20049;-80
2023/09/07 03:01:54;;;;;;;6.25;3.30;;;;;;;23.18;48.17;100303.47;5014816;28;20050;-77
2023/09/07 03:04:21;;;;;;;5.55;3.42;;;;;;;23.17;48.13;100305.28;5014979;28;20054;-77
2023/09/07 03:06:47;;;;;;;7.45;3.42;;;;;;;23.17;48.26;100307.13;5015008;28;20049;-78
2023/09/07 03:09:14;;;;;;;5.47;2.95;;;;;;;23.16;48.24;100311.66;5014616;28;20049;-78
2023/09/07 03:11:40;;;;;;;5.25;3.83;;;;;;;23.15;48.23;100309.13;5014512;28;20083;-76
2023/09/07 03:14:07;;;;;;;7.55;3.15;;;;;;;23.15;48.13;100309.13;5014633;28;20156;-77
2023/09/07 03:16:34;;;;;;;5.15;3.30;;;;;;;23.14;47.87;100310.13;5014662;28;20498;-81
2023/09/07 03:19:01;;;;;;;4.15;3.03;;;;;;;23.12;48.29;100306.75;5014771;28;20077;-77
2023/09/07 03:21:29;;;;;;;5.25;3.50;;;;;;;23.12;48.09;100309.44;5013842;28;20497;-77
2023/09/07 03:23:57;;;;;;;9.63;3.50;;;;;;;23.10;48.22;100317.66;5014035;28;20522;-77
2023/09/07 03:26:24;;;;;;;5.45;3.83;;;;;;;23.09;48.25;100310.59;5013712;28;20165;-78
2023/09/07 03:28:52;;;;;;;6.72;3.63;;;;;;;23.08;48.48;100308.06;5014090;28;20155;-78
2023/09/07 03:31:18;;;;;;;8.02;3.78;;;;;;;23.07;48.18;100322.50;5012635;28;20116;-77
2023/09/07 03:33:45;;;;;;;7.35;4.07;;;;;;;23.02;48.10;100315.75;5012808;28;20050;-79
2023/09/07 03:36:14;;;;;;;5.68;3.95;;;;;;;22.99;48.32;100321.41;5014325;28;20136;-77
2023/09/07 03:38:43;;;;;;;7.00;4.32;;;;;;;22.96;48.37;100320.91;5014113;28;20105;-80
2023/09/07 03:41:10;;;;;;;8.25;3.80;;;;;;;22.92;48.49;100320.38;5013796;28;20437;-79
2023/09/07 03:43:36;;;;;;;8.98;4.10;;;;;;;22.87;48.52;100317.28;5013954;28;20146;-78
2023/09/07 03:46:03;;;;;;;7.70;4.32;;;;;;;22.84;48.60;100314.94;5014305;28;20050;-76
2023/09/07 03:48:29;;;;;;;5.82;4.30;;;;;;;22.80;48.86;100319.75;5014034;28;20057;-78
2023/09/07 03:50:56;;;;;;;8.10;4.20;;;;;;;22.78;48.85;100324.44;5013931;28;20049;-77
2023/09/07 03:53:23;;;;;;;8.20;3.70;;;;;;;22.74;48.78;100323.06;5014110;28;20391;-77
2023/09/07 03:55:49;;;;;;;7.13;4.10;;;;;;;22.71;48.87;100328.72;5014376;28;20136;-77
2023/09/07 03:58:16;;;;;;;5.10;3.45;;;;;;;22.69;49.03;100325.38;5013177;28;20077;-77
2023/09/07 04:00:44;;;;;;;6.93;3.92;;;;;;;22.67;49.19;100325.50;5013391;28;20073;-81
2023/09/07 04:03:11;;;;;;;4.93;3.53;;;;;;;22.65;48.99;100333.72;5012166;28;20159;-80
2023/09/07 04:05:38;;;;;;;6.10;3.85;;;;;;;22.63;49.43;100324.13;5013468;28;20045;-77
2023/09/07 04:08:06;;;;;;;4.35;3.47;;;;;;;22.61;49.05;100323.44;5013519;28;20061;-78
2023/09/07 04:10:33;;;;;;;4.60;3.70;;;;;;;22.58;49.45;100324.56;5013883;28;20050;-77
2023/09/07 04:12:59;;;;;;;6.20;3.67;;;;;;;22.55;49.46;100329.41;5012974;28;20116;-77
2023/09/07 04:15:26;;;;;;;5.03;3.22;;;;;;;22.51;49.31;100326.16;5013685;28;20144;-78
2023/09/07 04:17:54;;;;;;;4.82;3.30;;;;;;;22.47;49.28;100320.25;5013552;28;20453;-76
2023/09/07 04:20:21;;;;;;;3.67;3.25;;;;;;;22.45;49.54;100324.06;5013391;28;20123;-77
2023/09/07 04:22:48;;;;;;;4.97;3.58;;;;;;;22.42;49.59;100330.59;5012695;28;20100;-78
2023/09/07 04:25:15;;;;;;;4.40;2.92;;;;;;;22.39;49.14;100321.00;5013517;28;20054;-77
2023/09/07 04:27:41;;;;;;;4.95;3.40;;;;;;;22.38;49.65;100321.16;5013511;28;20050;-78
2023/09/07 04:30:08;;;;;;;5.85;3.47;;;;;;;22.36;49.22;100325.84;5013249;28;20491;-78
2023/09/07 04:32:35;;;;;;;3.97;3.30;;;;;;;22.36;49.28;100332.03;5012580;28;20491;-77
2023/09/07 04:35:01;;;;;;;3.95;3.50;;;;;;;22.34;49.35;100333.19;5012934;28;20395;-79
2023/09/07 04:37:28;;;;;;;4.70;3.45;;;;;;;22.33;49.39;100328.81;5012819;28;20100;-76
2023/09/07 04:39:55;;;;;;;7.30;3.38;;;;;;;22.34;49.40;100327.81;5013226;28;20081;-77
2023/09/07 04:42:21;;;;;;;4.75;3.17;;;;;;;22.34;49.26;100333.19;5012912;28;20093;-80
2023/09/07 04:44:48;;;;;;;7.15;3.25;;;;;;;22.34;49.38;100331.34;5012340;28;20046;-78
2023/09/07 04:47:18;;;;;;;3.95;3.28;;;;;;;22.35;49.25;100335.72;5012804;28;20100;-77
2023/09/07 04:49:50;;;;;;;6.63;3.72;;;;;;;22.32;49.47;100336.00;5011621;28;20108;-78
2023/09/07 04:52:16;;;;;;;7.10;4.13;;;;;;;22.36;49.31;100333.88;5012985;28;20053;-76
2023/09/07 04:54:44;;;;;;;5.72;3.70;;;;;;;22.35;49.32;100329.53;5012708;28;20112;-78
2023/09/07 04:57:12;;;;;;;3.85;3.47;;;;;;;22.35;49.11;100333.03;5012864;28;20082;-77
2023/09/07 04:59:38;;;;;;;6.18;3.95;;;;;;;22.36;49.04;100325.84;5012182;28;20042;-78
2023/09/07 05:02:05;;;;;;;6.22;3.97;;;;;;;22.36;49.20;100331.19;5012402;28;20057;-77
2023/09/07 05:04:31;;;;;;;6.75;3.47;;;;;;;22.35;49.14;100333.03;5012706;28;20046;-77
2023/09/07 05:06:58;;;;;;;4.28;3.10;;;;;;;22.36;49.16;100328.53;5012567;28;20177;-76
2023/09/07 05:09:25;;;;;;;5.70;3.42;;;;;;;22.36;49.26;100331.19;5012498;28;20115;-81
2023/09/07 05:11:52;;;;;;;3.53;2.97;;;;;;;22.34;49.16;100334.03;5012263;28;20050;-77
2023/09/07 05:14:19;;;;;;;5.75;3.17;;;;;;;22.35;49.28;100332.22;5012147;28;20109;-81
2023/09/07 05:16:45;;;;;;;5.80;3.53;;;;;;;22.35;49.44;100334.88;5012431;28;20465;-79
2023/09/07 05:19:12;;;;;;;4.22;3.65;;;;;;;22.34;49.51;100333.19;5012398;28;20050;-77
2023/09/07 05:21:38;;;;;;;3.55;3.20;;;;;;;22.34;49.45;100330.50;5012179;28;20137;-79
2023/09/07 05:24:05;;;;;;;6.35;3.50;;;;;;;22.31;49.48;100333.50;5012590;28;20058;-77
2023/09/07 05:26:32;;;;;;;5.65;3.17;;;;;;;22.30;49.33;100331.78;5012461;28;20380;-78
2023/09/07 05:28:58;;;;;;;5.13;3.67;;;;;;;22.28;49.51;100340.00;5012221;28;20533;-78
2023/09/07 05:31:25;;;;;;;5.50;3.78;;;;;;;22.27;49.51;100332.94;5011561;28;20088;-79
2023/09/07 05:33:52;;;;;;;3.83;3.45;;;;;;;22.30;49.87;100340.69;5012329;28;20053;-78
2023/09/07 05:36:18;;;;;;;5.15;3.72;;;;;;;22.30;49.80;100331.78;5012040;28;20513;-78
2023/09/07 05:38:45;;;;;;;5.93;3.88;;;;;;;22.30;49.70;100342.50;5010976;28;20645;-77
2023/09/07 05:41:12;;;;;;;4.55;3.38;;;;;;;22.31;49.87;100331.66;5011575;28;20057;-78
2023/09/07 05:43:38;;;;;;;4.05;3.33;;;;;;;22.32;49.85;100332.50;5012057;28;20053;-77
2023/09/07 05:46:05;;;;;;;5.47;3.90;;;;;;;22.32;49.75;100332.50;5011889;28;20138;-76
2023/09/07 05:48:31;;;;;;;5.00;3.83;;;;;;;22.32;49.98;100344.06;5011809;28;20045;-78
2023/09/07 05:50:58;;;;;;;6.03;4.10;;;;;;;22.32;49.75;100345.91;5011463;28;20096;-78
2023/09/07 05:53:26;;;;;;;6.45;3.65;;;;;;;22.32;50.15;100345.91;5011565;28;20141;-77
2023/09/07 05:55:52;;;;;;;7.43;3.67;;;;;;;22.34;50.41;100346.59;5011865;28;20076;-77
2023/09/07 05:58:19;;;;;;;9.57;4.22;;;;;;;22.34;50.38;100343.91;5011742;28;20050;-78
2023/09/07 06:00:46;;;;;;;5.72;3.60;;;;;;;22.34;50.42;100347.44;5011551;28;20553;-80
2023/09/07 06:03:12;;;;;;;5.57;3.67;;;;;;;22.36;50.20;100352.66;5011309;28;20438;-79
2023/09/07 06:05:39;;;;;;;4.97;4.03;;;;;;;22.37;50.55;100357.88;5011593;28;20050;-79
2023/09/07 06:08:07;;;;;;;7.18;3.78;;;;;;;22.38;50.63;100358.69;5011554;28;20138;-77
2023/09/07 06:10:33;;;;;;;6.70;3.72;;;;;;;22.39;50.54;100350.50;5010329;28;20103;-78
2023/09/07 06:13:00;;;;;;;4.18;3.53;;;;;;;22.40;50.81;100359.41;5010928;28;20046;-78
2023/09/07 06:15:29;;;;;;;4.57;3.80;;;;;;;22.41;50.48;100360.25;5009780;28;20054;-76
2023/09/07 06:17:56;;;;;;;8.45;4.07;;;;;;;22.43;50.35;100353.72;5011593;28;20132;-77
2023/09/07 06:20:23;;;;;;;6.72;3.90;;;;;;;22.44;50.91;100354.59;5011549;28;20074;-79
2023/09/07 06:22:49;;;;;;;6.78;4.00;;;;;;;22.46;50.65;100353.44;5011227;28;20049;-78
2023/09/07 06:25:16;;;;;;;7.15;4.10;;;;;;;22.49;50.55;100349.59;5010844;28;20491;-76
2023/09/07 06:27:43;;;;;;;7.82;4.30;;;;;;;22.52;50.77;100358.22;5011286;28;20845;-77
2023/09/07 06:30:10;;;;;;;8.73;4.65;;;;;;;22.56;50.98;100358.78;5011547;28;20473;-81
2023/09/07 06:32:38;;;;;;;6.07;4.07;;;;;;;22.61;50.57;100369.88;5010665;28;20092;-78
2023/09/07 06:35:06;;;;;;;7.40;4.18;;;;;;;22.64;50.86;100366.91;5011237;28;20050;-78
2023/09/07 06:37:32;;;;;;;5.40;3.60;;;;;;;22.68;50.86;100358.56;5011119;28;20046;-77
2023/09/07 06:39:59;;;;;;;5.60;3.45;;;;;;;22.70;51.15;100357.41;5011137;28;20060;-79
2023/09/07 06:42:26;;;;;;;6.78;3.90;;;;;;;22.73;51.08;100354.41;5010461;28;20046;-79
2023/09/07 06:44:52;;;;;;;5.82;4.30;;;;;;;22.75;51.27;100365.00;5011393;28;20056;-79
2023/09/07 06:47:19;;;;;;;5.93;3.58;;;;;;;22.78;50.95;100362.88;5010969;28;20104;-79
2023/09/07 06:49:45;;;;;;;5.68;3.83;;;;;;;22.82;50.63;100373.28;5011127;28;20054;-78
2023/09/07 06:52:13;;;;;;;6.88;3.75;;;;;;;22.84;50.73;100361.38;5010851;28;20050;-77
2023/09/07 06:54:39;;;;;;;4.10;3.20;;;;;;;22.88;50.84;100373.50;5011191;28;20050;-79
2023/09/07 06:57:08;;;;;;;4.47;3.80;;;;;;;22.91;50.66;100367.84;5010903;28;20122;-77
2023/09/07 06:59:35;;;;;;;4.18;3.15;;;;;;;22.97;51.12;100371.75;5009974;28;20050;-77
2023/09/07 07:02:04;;;;;;;4.10;3.28;;;;;;;23.01;50.64;100373.13;5010750;28;20127;-78
2023/09/07 07:04:31;;;;;;;7.03;3.83;;;;;;;23.03;50.99;100376.50;5009822;28;20478;-78
2023/09/07 07:07:00;;;;;;;4.95;3.63;;;;;;;23.09;51.15;100380.41;5010870;28;20514;-77
2023/09/07 07:09:28;;;;;;;5.00;3.67;;;;;;;23.11;50.86;100377.56;5011072;28;20046;-77
2023/09/07 07:11:55;;;;;;;6.05;3.40;;;;;;;23.14;51.27;100377.28;5010780;28;20049;-77
2023/09/07 07:14:21;;;;;;;5.90;3.55;;;;;;;23.18;50.82;100384.03;5011021;28;20092;-77
2023/09/07 07:16:48;;;;;;;3.70;3.15;;;;;;;23.21;51.14;100383.69;5010998;28;20046;-78
2023/09/07 07:19:14;;;;;;;5.28;3.83;;;;;;;23.25;51.27;100384.25;5010732;28;20120;-79
2023/09/07 07:21:59;;;;;;;5.35;3.75;;;;;;;23.30;50.92;100387.31;5010365;28;20553;-78
2023/09/07 07:24:26;;;;;;;4.35;3.80;;;;;;;23.34;51.34;100377.09;5010929;28;20067;-79
2023/09/07 07:26:52;;;;;;;4.15;3.22;;;;;;;23.37;51.19;100387.56;5010889;28;20092;-78
2023/09/07 07:29:19;;;;;;;7.45;4.00;;;;;;;23.43;50.98;100389.59;5010638;28;20529;-77
2023/09/07 07:31:46;;;;;;;4.05;3.53;;;;;;;23.46;51.37;100377.69;5010446;28;20483;-78
2023/09/07 07:34:14;;;;;;;6.55;4.28;;;;;;;23.51;50.92;100386.16;5010540;28;20085;-80
2023/09/07 07:36:41;;;;;;;5.68;3.53;;;;;;;23.55;50.69;100384.84;5011168;28;20128;-77
2023/09/07 07:39:08;;;;;;;7.32;3.90;;;;;;;23.59;50.85;100385.34;5014222;28;20112;-78
2023/09/07 07:41:35;;;;;;;5.28;3.55;;;;;;;23.65;51.11;100376.66;5014070;28;20046;-77
2023/09/07 07:44:02;;;;;;;4.97;3.60;;;;;;;23.70;51.04;100387.78;5014370;28;20277;-81
2023/09/07 07:46:29;;;;;;;5.22;3.67;;;;;;;23.76;51.15;100386.28;5013977;28;20478;-79
2023/09/07 07:48:56;;;;;;;4.25;3.85;;;;;;;23.82;51.18;100386.50;5014021;28;20041;-77
2023/09/07 07:54:16;;;;;;;4.75;3.92;;;;;;;23.92;50.61;100388.25;5005015;23;20055;-81
2023/09/07 07:56:43;;;;;;;4.55;3.80;;;;;;;23.95;50.65;100393.28;4956138;28;20051;-81
2023/09/07 07:59:09;;;;;;;5.22;3.70;;;;;;;23.99;50.86;100397.34;4956138;28;20051;-81
2023/09/07 08:01:36;;;;;;;5.10;3.80;;;;;;;24.02;50.43;100391.66;4955641;29;20051;-81
2023/09/07 08:04:03;;;;;;;7.65;3.33;;;;;;;24.06;50.58;100392.16;4956222;28;20047;-81
2023/09/07 08:06:30;;;;;;;5.05;4.00;;;;;;;24.12;50.23;100398.78;4956016;28;20052;-81
2023/09/07 08:08:57;;;;;;;3.55;3.25;;;;;;;24.18;50.06;100400.84;4956216;28;20393;-80
2023/09/07 08:11:25;;;;;;;4.70;3.50;;;;;;;24.22;50.02;100399.50;4955812;28;20416;-80
2023/09/07 08:13:52;;;;;;;3.65;3.15;;;;;;;24.29;50.27;100402.41;4955699;28;20407;-80
2023/09/07 08:16:18;;;;;;;4.00;3.30;;;;;;;24.34;50.26;100392.81;4956184;28;20055;-78
2023/09/07 08:18:45;;;;;;;3.47;3.03;;;;;;;24.43;49.82;100398.22;4955715;28;20047;-80
2023/09/07 08:21:15;;;;;;;4.72;3.63;;;;;;;24.48;49.83;100395.88;4955523;28;20043;-81
2023/09/07 08:23:41;;;;;;;6.28;3.90;;;;;;;24.55;49.79;100391.53;4955731;28;20051;-80
2023/09/07 08:26:09;;;;;;;6.55;3.65;;;;;;;24.63;49.95;100392.59;4955579;28;20058;-81
2023/09/07 08:28:35;;;;;;;7.75;4.00;;;;;;;24.67;50.14;100394.75;4955487;28;20114;-80
2023/09/07 08:31:04;;;;;;;5.07;3.60;;;;;;;24.74;49.92;100394.94;4955217;28;20055;-81
2023/09/07 08:33:35;;;;;;;8.13;4.03;;;;;;;24.81;50.18;100395.97;4955724;28;20062;-80
2023/09/07 08:36:04;;;;;;;3.78;3.38;;;;;;;24.89;49.51;100394.34;4954772;28;20492;-80
2023/09/07 08:38:30;;;;;;;4.07;3.05;;;;;;;24.95;49.60;100391.81;4954971;28;20083;-81
2023/09/07 08:41:05;;;;;;;4.88;3.30;;;;;;;25.01;49.07;100393.03;4954419;28;20070;-80
2023/09/07 08:43:35;;;;;;;3.67;2.97;;;;;;;25.09;49.19;100392.16;4955017;28;20062;-80
2023/09/07 08:46:14;;;;;;;4.38;3.08;;;;;;;25.16;49.02;100392.34;4954842;28;20047;-80
2023/09/07 08:48:43;;;;;;;5.43;3.53;;;;;;;25.26;49.09;100392.19;4954032;28;20058;-81
2023/09/07 08:51:11;;;;;;;4.70;3.25;;;;;;;25.34;49.02;100379.53;4954195;28;20051;-80
2023/09/07 08:53:40;;;;;;;6.47;3.72;;;;;;;25.41;48.87;100381.56;4954588;28;20504;-80
2023/09/07 08:56:10;;;;;;;3.50;3.20;;;;;;;25.49;48.38;100384.25;4954643;28;20059;-80
2023/09/07 08:58:36;;;;;;;6.18;3.53;;;;;;;25.57;48.42;100386.13;4954808;28;20086;-81
2023/09/07 09:01:03;;;;;;;4.82;3.20;;;;;;;25.64;48.65;100387.09;4954287;28;20051;-81
2023/09/07 09:03:35;;;;;;;8.27;3.53;;;;;;;25.71;48.16;100389.97;4954623;28;20059;-81
2023/09/07 09:06:02;;;;;;;4.63;3.40;;;;;;;25.80;49.07;100390.78;4954189;28;20051;-80
2023/09/07 09:08:29;;;;;;;6.55;3.72;;;;;;;25.87;49.08;100384.50;4954631;28;20169;-79
2023/09/07 09:11:03;;;;;;;5.72;3.45;;;;;;;25.95;49.19;100394.47;4954124;28;20055;-80
2023/09/07 09:13:31;;;;;;;8.45;3.70;;;;;;;26.06;48.93;100390.53;4954258;28;20051;-81
2023/09/07 09:16:00;;;;;;;10.35;4.00;;;;;;;26.18;48.48;100388.28;4954210;28;20451;-81
2023/09/07 09:18:28;;;;;;;3.70;2.95;;;;;;;26.28;48.13;100393.53;4954147;28;20051;-80
2023/09/07 09:20:55;;;;;;;3.92;3.00;;;;;;;26.37;49.06;100395.16;4953713;28;20456;-79
2023/09/07 09:23:22;;;;;;;5.03;3.22;;;;;;;26.47;48.24;100386.00;4954349;28;20090;-80
2023/09/07 09:25:49;;;;;;;6.28;2.95;;;;;;;26.57;47.87;100391.19;4954141;28;20070;-83
2023/09/07 09:28:15;;;;;;;6.00;3.47;;;;;;;26.66;47.94;100388.22;4954009;28;20051;-81
2023/09/07 09:30:45;;;;;;;4.43;3.55;;;;;;;26.76;47.54;100393.41;4954033;28;20047;-80
2023/09/07 09:33:11;;;;;;;4.88;3.53;;;;;;;26.86;47.56;100393.19;4953765;28;20058;-81
2023/09/07 09:35:38;;;;;;;3.72;3.30;;;;;;;26.96;48.09;100384.03;4954114;28;20055;-81
2023/09/07 09:38:05;;;;;;;4.35;3.38;;;;;;;27.07;48.84;100383.59;4954058;28;20047;-81
2023/09/07 09:40:34;;;;;;;6.20;3.35;;;;;;;27.19;49.02;100384.00;4953757;28;20492;-81
2023/09/07 09:43:05;;;;;;;6.28;3.45;;;;;;;27.29;49.60;100383.75;4953562;28;20385;-80
2023/09/07 09:45:33;;;;;;;5.25;3.28;;;;;;;27.42;47.99;100380.41;4953810;28;20456;-77
2023/09/07 09:48:00;;;;;;;5.00;3.28;;;;;;;27.52;47.67;100389.13;4953830;28;20066;-78
2023/09/07 09:50:31;;;;;;;4.43;3.20;;;;;;;27.62;47.60;100383.47;4953944;28;20047;-80
2023/09/07 09:52:58;;;;;;;5.22;3.50;;;;;;;27.71;47.46;100373.41;4953411;28;20089;-81
2023/09/07 09:55:25;;;;;;;4.43;3.20;;;;;;;27.81;47.60;100375.84;4953749;28;20059;-80
2023/09/07 09:57:51;;;;;;;4.55;3.53;;;;;;;27.91;47.16;100367.41;4953549;28;20097;-81
2023/09/07 10:03:07;;;;;;;3.80;3.38;;;;;;;28.03;46.10;100371.34;4953330;28;20055;-80
2023/09/07 10:05:34;;;;;;;4.35;3.38;;;;;;;28.19;46.09;100359.47;4953565;28;20047;-81
2023/09/07 10:08:05;;;;;;;7.57;3.60;;;;;;;28.28;45.92;100364.78;4953427;28;20047;-82
2023/09/07 10:10:36;;;;;;;5.75;3.00;;;;;;;28.36;45.61;100353.84;4953272;28;20047;-81
2023/09/07 10:13:04;;;;;;;6.68;3.42;;;;;;;28.47;45.51;100364.19;4952949;29;20062;-81
2023/09/07 10:15:32;;;;;;;5.13;3.20;;;;;;;28.57;45.77;100355.78;4953332;28;20055;-81
2023/09/07 10:18:13;;;;;;;5.55;3.13;;;;;;;28.64;44.82;100353.13;4953015;28;20148;-81
2023/09/07 10:20:55;;;;;;;4.72;3.22;;;;;;;28.74;45.49;100348.22;4953067;28;20047;-80
2023/09/07 10:23:23;;;;;;;;;;;;;;;28.86;46.11;100345.81;4953454;28;20055;-81
2023/09/07 10:25:51;;;;;;;3.95;3.20;;;;;;;29.03;44.52;100355.59;4953154;28;20280;-81
2023/09/07 10:28:25;;;;;;;4.05;3.00;;;;;;;29.09;45.10;100352.94;4952875;28;20452;-81
2023/09/07 10:31:13;;;;;;;4.68;3.33;;;;;;;29.19;45.81;100355.31;4951502;29;20051;-82
2023/09/07 10:33:40;;;;;;;3.42;3.00;;;;;;;29.33;45.80;100353.53;4953040;28;20061;-81
2023/09/07 10:36:07;;;;;;;4.30;2.90;;;;;;;29.45;45.38;100345.69;4953061;28;20436;-81
2023/09/07 10:38:34;;;;;;;4.10;2.90;;;;;;;29.56;44.05;100341.63;4952957;28;20055;-81
2023/09/07 10:41:04;;;;;;;6.47;2.88;;;;;;;29.66;43.66;100349.41;4952484;28;20520;-81
2023/09/07 10:43:33;;;;;;;3.67;3.22;;;;;;;29.77;44.64;100342.56;4952802;28;20050;-80
2023/09/07 10:46:00;;;;;;;4.20;3.03;;;;;;;29.87;44.87;100339.50;4952923;28;20048;-81
2023/09/07 10:48:33;;;;;;;5.72;3.13;;;;;;;29.95;43.22;100346.63;4952869;28;20047;-80
2023/09/07 10:51:00;;;;;;;3.22;2.83;;;;;;;30.07;43.48;100336.03;4952748;28;20106;-80
2023/09/07 10:53:31;;;;;;;4.53;3.33;;;;;;;30.16;43.38;100340.28;4952700;28;20138;-81
2023/09/07 10:56:03;;;;;;;3.00;2.53;;;;;;;30.29;43.80;100340.34;4952740;28;20071;-81
2023/09/07 10:58:32;;;;;;;9.75;3.40;;;;;;;30.46;43.50;100337.22;4951461;29;20055;-77
2023/09/07 11:00:59;;;;;;;3.78;3.00;;;;;;;30.62;43.43;100336.00;4951027;29;20047;-80
2023/09/07 11:03:27;;;;;;;2.90;2.60;;;;;;;30.84;43.05;100329.56;4952745;28;20082;-80
2023/09/07 11:05:58;;;;;;;4.10;3.28;;;;;;;31.13;43.50;100327.50;4952689;28;20094;-81
2023/09/07 11:08:26;;;;;;;4.88;3.35;;;;;;;31.52;44.02;100328.50;4952633;28;20083;-81
2023/09/07 11:10:52;;;;;;;5.50;2.88;;;;;;;32.04;43.47;100316.00;4952225;28;20057;-81
2023/09/07 11:13:19;;;;;;;5.00;3.10;;;;;;;32.65;42.92;100316.50;4955541;28;20051;-82
2023/09/07 11:15:46;;;;;;;4.38;2.78;;;;;;;33.28;41.63;100313.88;4956596;28;20055;-83
2023/09/07 11:18:13;;;;;;;3.95;3.30;;;;;;;33.92;40.72;100313.59;4956151;28;20456;-80
2023/09/07 11:20:39;;;;;;;5.45;2.95;;;;;;;34.55;40.23;100315.28;4956436;28;20047;-81
2023/09/07 11:23:07;;;;;;;4.78;2.75;;;;;;;35.15;38.22;100309.91;4956170;28;20130;-81
2023/09/07 11:25:35;;;;;;;3.38;2.70;;;;;;;35.69;36.78;100311.66;4956081;28;20435;-77
2023/09/07 11:28:04;;;;;;;2.63;2.42;;;;;;;36.19;36.15;100304.72;4956239;28;20087;-80
2023/09/07 11:30:31;;;;;;;2.97;2.42;;;;;;;36.67;35.35;100303.63;4956185;28;20055;-81
2023/09/07 11:33:06;;;;;;;2.78;2.42;;;;;;;37.10;34.68;100304.00;4955806;28;20055;-81
2023/09/07 11:35:33;;;;;;;4.78;2.47;;;;;;;37.54;34.63;100304.09;4956073;28;20138;-80
2023/09/07 11:38:03;;;;;;;3.22;2.47;;;;;;;37.95;33.28;100305.69;4955871;28;20051;-81
2023/09/07 11:40:31;;;;;;;2.63;2.40;;;;;;;38.37;32.87;100301.44;4955918;28;20478;-81